KCDN

Details ICAO KCDN (CDN)
Name WOODWARD FLD
Region United States
Timezone America/New_York (UTC-5.0)
Plans Departing 3
Arriving 1
Stats Elevation 302 ft / 92 m (AMSL)
Location 34.283642° -80.564846°
Runways 2
Magnetic Variation 7.782° W
Sunrise 2017-12-17 12:23:48 UTC / 2017-12-17 07:23:48 Local
Sunset 2017-12-17 22:15:55 UTC / 2017-12-17 17:15:55 Local
Advertisement - Login to hide

Runways

ID Width Length Bearing (true) Bearing (mag) Surface Threshold Offset Overrun Length
06 100 ft / 30 m 4,999 ft / 1,524 m 51.60° 59.38° Asphalt 0 ft / 0 m 0 ft / 0 m
14 100 ft / 30 m 2,999 ft / 914 m 134.86° 142.64° Asphalt 0 ft / 0 m 0 ft / 0 m
24 100 ft / 30 m 4,999 ft / 1,524 m 231.61° 239.39° Asphalt 0 ft / 0 m 0 ft / 0 m
32 100 ft / 30 m 2,999 ft / 914 m 314.86° 322.64° Asphalt 0 ft / 0 m 0 ft / 0 m

Map

Weather


0- 5 10 15 20 25 30 35+ Temperature / ° C

Clouds and Precipitation
Forecast for 2017-12-18 00:00 UTC. Updated 5 minutes ago

Ground ~20,000 ft ~40,000 ft Winds

METAR

KCDN 172315Z AUTO 00000KT 10SM OVC037 11/04 A3019 RMK AO2

TAF

Not found

Frequencies

Recorded 119.97 MHz AWOS 3
Approach 125.40 MHz SHAW APP/DEP
Unicom 123.00 MHz CTAF/UNICOM
Warning: Do not use this data for real-world aviation or navigation. No guarantee of current accuracy is given.